createdAt,value
2022-12-23T00:01:55.243Z,60.13
2022-12-23T00:04:23.196Z,56.28
2022-12-23T00:06:51.035Z,59.15
2022-12-23T00:09:18.325Z,54.25
2022-12-23T00:12:04.533Z,51.88
2022-12-23T00:14:50.882Z,60.95
2022-12-23T00:17:22.715Z,60.13
2022-12-23T00:19:51.073Z,53.85
2022-12-23T00:22:18.926Z,62.83
2022-12-23T00:24:46.574Z,58.78
2022-12-23T00:27:14.361Z,68.13
2022-12-23T00:29:41.893Z,61.88
2022-12-23T00:32:09.534Z,65.63
2022-12-23T00:34:37.050Z,60.05
2022-12-23T00:37:04.631Z,56.30
2022-12-23T00:39:54.735Z,59.55
2022-12-23T00:42:41.309Z,66.40
2022-12-23T00:45:21.420Z,66.28
2022-12-23T00:48:07.709Z,64.32
2022-12-23T00:50:39.919Z,64.35
2022-12-23T00:53:07.437Z,67.22
2022-12-23T00:55:34.830Z,67.45
2022-12-23T00:58:02.328Z,69.15
2022-12-23T01:00:48.177Z,73.43
2022-12-23T01:03:34.201Z,73.20
2022-12-23T01:06:02.868Z,72.28
2022-12-23T01:08:30.657Z,62.78
2022-12-23T01:11:03.448Z,71.60
2022-12-23T01:16:14.947Z,69.53
2022-12-23T01:18:44.955Z,76.65
2022-12-23T01:21:12.436Z,77.72
2022-12-23T01:23:40.212Z,71.85
2022-12-23T01:26:08.788Z,76.13
2022-12-23T01:28:36.653Z,81.03
2022-12-23T01:31:05.750Z,79.95
2022-12-23T01:33:34.140Z,81.57
2022-12-23T01:36:07.032Z,82.45
2022-12-23T01:38:35.490Z,73.35
2022-12-23T01:41:02.976Z,83.40
2022-12-23T01:43:50.578Z,78.60
2022-12-23T01:46:19.253Z,77.80
2022-12-23T01:48:51.545Z,77.68
2022-12-23T01:51:26.529Z,87.28
2022-12-23T01:54:01.205Z,78.65
2022-12-23T01:56:38.762Z,88.82
2022-12-23T01:59:09.966Z,81.38
2022-12-23T02:01:55.918Z,80.13
2022-12-23T02:04:25.075Z,91.35
2022-12-23T02:07:10.768Z,90.88
2022-12-23T02:09:39.948Z,89.32
2022-12-23T02:12:25.848Z,91.15
2022-12-23T02:15:50.764Z,88.57
2022-12-23T02:18:21.358Z,90.00
2022-12-23T02:21:00.785Z,85.50
2022-12-23T02:24:12.631Z,91.15
2022-12-23T02:27:01.735Z,90.25
2022-12-23T02:29:53.608Z,85.45
2022-12-23T02:32:33.621Z,95.40
2022-12-23T02:35:07.388Z,82.60
2022-12-23T02:37:40.908Z,82.88
2022-12-23T02:40:20.830Z,78.53
2022-12-23T02:42:56.626Z,81.32
2022-12-23T02:45:28.291Z,72.30
2022-12-23T02:48:03.962Z,73.45
2022-12-23T02:50:33.996Z,74.28
2022-12-23T02:53:06.478Z,84.80
2022-12-23T02:55:35.531Z,86.67
2022-12-23T02:58:06.624Z,76.28
2022-12-23T03:00:34.425Z,72.72
2022-12-23T03:03:01.929Z,75.22
2022-12-23T03:05:34.570Z,75.82
2022-12-23T03:08:04.491Z,76.00
2022-12-23T03:10:37.811Z,69.45
2022-12-23T03:13:43.067Z,68.97
2022-12-23T03:16:47.639Z,67.10
2022-12-23T03:19:26.682Z,65.20
2022-12-23T03:21:56.175Z,63.45
2022-12-23T03:24:45.535Z,65.18
2022-12-23T03:27:36.457Z,60.47
2022-12-23T03:30:08.263Z,63.50
2022-12-23T03:32:48.271Z,66.10
2022-12-23T03:35:18.572Z,65.18
2022-12-23T03:37:49.853Z,67.38
2022-12-23T03:40:20.661Z,62.58
2022-12-23T03:42:53.031Z,61.15
2022-12-23T03:45:39.287Z,56.67
2022-12-23T03:48:14.654Z,67.53
2022-12-23T03:50:43.439Z,51.25
2022-12-23T03:53:14.931Z,61.97
2022-12-23T03:55:51.933Z,54.40
2022-12-23T03:58:22.126Z,51.10
2022-12-23T04:00:59.059Z,53.63
2022-12-23T04:03:37.400Z,50.88
2022-12-23T04:06:06.472Z,53.53
2022-12-23T04:08:36.285Z,52.58
2022-12-23T04:11:04.567Z,53.22
2022-12-23T04:13:32.262Z,55.20
2022-12-23T04:16:01.688Z,54.83
2022-12-23T04:18:29.282Z,49.72
2022-12-23T04:20:56.898Z,49.75
2022-12-23T04:23:24.147Z,49.05
2022-12-23T04:25:51.816Z,44.60
2022-12-23T04:28:19.181Z,50.33
2022-12-23T04:30:46.832Z,44.80
2022-12-23T04:33:14.161Z,48.85
2022-12-23T04:35:41.650Z,54.60
2022-12-23T04:38:08.845Z,49.30
2022-12-23T04:40:36.505Z,45.30
2022-12-23T04:43:03.839Z,41.78
2022-12-23T04:45:32.558Z,40.40
2022-12-23T04:47:59.826Z,45.15
2022-12-23T04:50:27.358Z,42.47
2022-12-23T04:52:54.743Z,43.90
2022-12-23T04:55:22.536Z,39.75
2022-12-23T04:57:49.958Z,47.42
2022-12-23T05:00:18.269Z,36.58
2022-12-23T05:02:45.742Z,37.85
2022-12-23T05:05:13.580Z,40.35
2022-12-23T05:07:40.816Z,45.75
2022-12-23T05:10:09.131Z,39.10
2022-12-23T05:12:36.444Z,39.05
2022-12-23T05:15:04.327Z,42.97
2022-12-23T05:17:31.525Z,45.25
2022-12-23T05:19:58.973Z,43.15
2022-12-23T05:22:26.172Z,42.80
2022-12-23T05:24:53.735Z,38.60
2022-12-23T05:27:20.970Z,45.15
2022-12-23T05:29:48.598Z,45.45
2022-12-23T05:32:44.754Z,50.47
2022-12-23T05:35:12.246Z,45.25
2022-12-23T05:37:39.494Z,44.85
2022-12-23T05:40:07.678Z,40.20
2022-12-23T05:42:35.246Z,48.28
2022-12-23T05:45:03.004Z,43.85
2022-12-23T05:47:30.302Z,46.75
2022-12-23T05:49:57.482Z,42.80
2022-12-23T05:52:25.860Z,44.83
2022-12-23T05:54:53.619Z,48.85
2022-12-23T05:57:20.979Z,50.75
2022-12-23T05:59:48.648Z,48.97
2022-12-23T06:02:16.088Z,49.95
2022-12-23T06:04:43.945Z,51.80
2022-12-23T06:07:11.477Z,51.58
2022-12-23T06:09:39.029Z,54.15
2022-12-23T06:12:06.404Z,51.17
2022-12-23T06:14:34.099Z,55.42
2022-12-23T06:17:01.563Z,51.45
2022-12-23T06:19:29.186Z,52.38
2022-12-23T06:21:56.687Z,53.55
2022-12-23T06:24:24.279Z,52.42
2022-12-23T06:26:56.811Z,54.30
2022-12-23T06:29:25.251Z,56.05
2022-12-23T06:31:52.488Z,64.63
2022-12-23T06:34:20.274Z,60.28
2022-12-23T06:36:47.438Z,64.55
2022-12-23T06:39:15.134Z,62.97
2022-12-23T06:41:42.366Z,53.28
2022-12-23T06:44:10.374Z,60.90
2022-12-23T06:46:37.785Z,60.28
2022-12-23T06:49:12.572Z,62.58
2022-12-23T06:51:41.365Z,62.08
2022-12-23T06:54:11.935Z,66.00
2022-12-23T06:56:39.850Z,63.17
2022-12-23T06:59:07.056Z,75.07
2022-12-23T07:01:34.816Z,67.32
2022-12-23T07:04:03.133Z,66.22
2022-12-23T07:06:30.755Z,66.10
2022-12-23T07:08:58.034Z,68.88
2022-12-23T07:11:25.597Z,62.08
2022-12-23T07:13:52.810Z,66.93
2022-12-23T07:16:20.321Z,63.95
2022-12-23T07:18:47.673Z,64.72
2022-12-23T07:21:22.921Z,64.68
2022-12-23T07:23:54.010Z,62.90
2022-12-23T07:26:21.656Z,65.00
2022-12-23T07:28:49.272Z,68.43
2022-12-23T07:31:17.163Z,62.90
2022-12-23T07:33:44.777Z,62.72
2022-12-23T07:36:13.056Z,63.50
2022-12-23T07:38:40.210Z,60.50
2022-12-23T07:41:07.842Z,62.20
2022-12-23T07:43:35.569Z,62.72
2022-12-23T07:46:08.134Z,53.83
2022-12-23T07:48:35.716Z,56.78
2022-12-23T07:51:04.103Z,56.13
2022-12-23T07:53:31.659Z,56.80
2022-12-23T07:55:59.397Z,58.95
2022-12-23T07:58:26.603Z,60.33
2022-12-23T08:01:08.223Z,57.88
2022-12-23T08:03:35.668Z,59.15
2022-12-23T08:06:09.180Z,55.10
2022-12-23T08:11:05.439Z,63.17
2022-12-23T08:13:34.727Z,56.95
2022-12-23T08:16:03.748Z,60.40
2022-12-23T08:18:34.528Z,62.60
2022-12-23T08:21:16.820Z,65.25
2022-12-23T08:23:44.201Z,56.58
2022-12-23T08:26:16.841Z,60.50
2022-12-23T08:28:44.902Z,56.35
2022-12-23T08:31:15.556Z,59.15
2022-12-23T08:33:45.112Z,55.75
2022-12-23T08:36:22.839Z,62.17
2022-12-23T08:38:52.969Z,65.25
2022-12-23T08:41:23.453Z,61.67
2022-12-23T08:43:51.493Z,60.67
2022-12-23T08:46:19.750Z,58.83
2022-12-23T08:48:49.648Z,51.05
2022-12-23T08:51:19.292Z,54.50
2022-12-23T08:53:46.775Z,54.63
2022-12-23T08:56:18.074Z,55.33
2022-12-23T08:58:47.188Z,53.97
2022-12-23T09:01:17.598Z,52.53
2022-12-23T09:03:45.442Z,55.00
2022-12-23T09:06:16.028Z,57.78
2022-12-23T09:08:43.670Z,53.97
2022-12-23T09:11:20.104Z,53.63
2022-12-23T09:13:48.203Z,56.72
2022-12-23T09:16:16.231Z,59.13
2022-12-23T09:18:43.597Z,54.22
2022-12-23T09:21:17.009Z,54.17
2022-12-23T09:26:18.689Z,53.03
2022-12-23T09:28:46.009Z,52.05
2022-12-23T09:31:14.323Z,50.05
2022-12-23T09:33:41.844Z,49.40
2022-12-23T09:36:09.575Z,52.65
2022-12-23T09:38:37.086Z,55.25
2022-12-23T09:41:32.226Z,52.50
2022-12-23T09:44:24.310Z,51.67
2022-12-23T09:46:55.294Z,51.10
2022-12-23T09:49:23.893Z,50.88
2022-12-23T09:51:54.266Z,46.15
2022-12-23T09:54:24.106Z,51.88
2022-12-23T09:56:54.293Z,49.38
2022-12-23T09:59:30.764Z,49.35
2022-12-23T10:02:06.413Z,50.05
2022-12-23T10:05:00.222Z,51.67
2022-12-23T10:07:37.905Z,48.92
2022-12-23T10:10:15.101Z,47.05
2022-12-23T10:12:45.760Z,48.40
2022-12-23T10:15:35.286Z,56.15
2022-12-23T10:18:10.816Z,52.05
2022-12-23T10:20:44.889Z,50.47
2022-12-23T10:23:19.495Z,48.90
2022-12-23T10:25:51.875Z,53.03
2022-12-23T10:28:19.914Z,49.60
2022-12-23T10:31:23.923Z,46.08
2022-12-23T10:34:11.451Z,49.80
2022-12-23T10:36:45.766Z,49.13
2022-12-23T10:39:31.868Z,52.63
2022-12-23T10:42:23.679Z,53.40
2022-12-23T10:45:01.508Z,56.95
2022-12-23T10:47:49.359Z,57.28
2022-12-23T10:50:36.083Z,55.30
2022-12-23T10:53:08.388Z,47.50
2022-12-23T10:55:38.586Z,63.08
2022-12-23T10:58:18.513Z,57.25
2022-12-23T11:00:50.301Z,63.72
2022-12-23T11:03:17.879Z,90.07
2022-12-23T11:05:46.477Z,90.35
2022-12-23T11:08:13.897Z,64.07
2022-12-23T11:10:41.765Z,76.68
2022-12-23T11:13:09.203Z,60.85
2022-12-23T11:15:39.339Z,65.03
2022-12-23T11:18:26.742Z,52.78
2022-12-23T11:21:07.155Z,55.50
2022-12-23T11:23:36.804Z,63.38
2022-12-23T11:26:08.613Z,57.45
2022-12-23T11:28:38.993Z,51.65
2022-12-23T11:31:11.953Z,62.38
2022-12-23T11:33:56.910Z,51.45
2022-12-23T11:36:27.853Z,55.78
2022-12-23T11:39:08.137Z,62.50
2022-12-23T11:41:42.614Z,51.80
2022-12-23T11:44:30.936Z,58.40
2022-12-23T11:46:58.713Z,57.72
2022-12-23T11:49:28.113Z,48.97
2022-12-23T11:52:07.870Z,57.60
2022-12-23T11:54:35.396Z,55.42
2022-12-23T11:57:06.120Z,54.60
2022-12-23T11:59:37.024Z,59.88
2022-12-23T12:02:36.825Z,64.43
2022-12-23T12:05:22.579Z,64.85
2022-12-23T12:07:51.191Z,58.88
2022-12-23T12:10:31.684Z,55.13
2022-12-23T12:13:05.710Z,51.50
2022-12-23T12:16:08.397Z,63.15
2022-12-23T12:18:36.587Z,55.80
2022-12-23T12:21:11.401Z,61.97
2022-12-23T12:23:47.029Z,60.50
2022-12-23T12:26:34.790Z,56.72
2022-12-23T12:29:27.428Z,59.08
2022-12-23T12:31:57.908Z,60.88
2022-12-23T12:34:40.919Z,62.65
2022-12-23T12:40:14.031Z,60.72
2022-12-23T12:42:43.266Z,62.20
2022-12-23T12:45:18.337Z,62.30
2022-12-23T12:48:13.074Z,63.55
2022-12-23T12:50:54.991Z,68.70
2022-12-23T12:53:22.918Z,64.50
2022-12-23T12:56:01.194Z,64.07
2022-12-23T12:58:28.687Z,64.35
2022-12-23T13:01:21.037Z,77.82
2022-12-23T13:04:13.286Z,76.07
2022-12-23T13:07:22.565Z,71.50
2022-12-23T13:09:52.826Z,72.65
2022-12-23T13:12:46.416Z,84.65
2022-12-23T13:15:24.091Z,77.18
2022-12-23T13:18:10.998Z,86.57
2022-12-23T13:21:09.480Z,85.10
2022-12-23T13:23:48.536Z,78.40
2022-12-23T13:26:26.995Z,84.30
2022-12-23T13:29:14.139Z,87.22
2022-12-23T13:31:44.343Z,82.60
2022-12-23T13:34:24.146Z,78.38
2022-12-23T13:37:06.673Z,68.35
2022-12-23T13:39:46.969Z,79.63
2022-12-23T13:42:20.948Z,75.15
2022-12-23T13:44:48.576Z,80.65
2022-12-23T13:47:26.196Z,73.45
2022-12-23T13:50:20.667Z,79.82
2022-12-23T13:52:53.857Z,80.72
2022-12-23T13:55:33.532Z,76.35
2022-12-23T13:58:11.329Z,78.85
2022-12-23T14:00:38.845Z,82.57
2022-12-23T14:03:18.478Z,80.72
2022-12-23T14:05:50.951Z,75.40
2022-12-23T14:08:27.484Z,80.63
2022-12-23T14:10:57.717Z,77.70
2022-12-23T14:13:49.773Z,82.50
2022-12-23T14:16:26.580Z,96.82
2022-12-23T14:19:06.657Z,104.97
2022-12-23T14:22:05.798Z,82.32
2022-12-23T14:25:14.641Z,78.82
2022-12-23T14:28:19.803Z,82.10
2022-12-23T14:30:47.219Z,76.78
2022-12-23T14:33:23.664Z,68.38
2022-12-23T14:35:54.792Z,73.10
2022-12-23T14:38:32.873Z,71.28
2022-12-23T14:41:20.311Z,73.35
2022-12-23T14:43:56.249Z,70.25
2022-12-23T14:46:38.857Z,62.75
2022-12-23T14:49:44.338Z,63.25
2022-12-23T14:52:42.461Z,71.85
2022-12-23T14:55:32.568Z,66.38
2022-12-23T14:58:08.918Z,63.38
2022-12-23T15:00:46.827Z,63.55
2022-12-23T15:03:14.292Z,56.15
2022-12-23T15:05:42.859Z,58.30
2022-12-23T15:08:30.780Z,59.97
2022-12-23T15:10:59.638Z,65.82
2022-12-23T15:13:28.406Z,58.67
2022-12-23T15:16:01.322Z,58.88
2022-12-23T15:21:05.128Z,59.35
2022-12-23T15:23:33.560Z,49.75
2022-12-23T15:26:01.745Z,58.45
2022-12-23T15:28:39.960Z,51.92
2022-12-23T15:31:20.987Z,56.53
2022-12-23T15:34:05.597Z,52.53
2022-12-23T15:36:37.270Z,53.65
2022-12-23T15:39:25.668Z,51.97
2022-12-23T15:41:53.296Z,53.72
2022-12-23T15:44:26.787Z,55.95
2022-12-23T15:46:54.618Z,48.53
2022-12-23T15:49:22.067Z,49.25
2022-12-23T15:52:08.027Z,49.28
2022-12-23T15:54:44.640Z,49.67
2022-12-23T15:57:17.557Z,45.85
2022-12-23T15:59:44.997Z,49.28
2022-12-23T16:02:59.226Z,48.85
2022-12-23T16:05:09.825Z,50.45
2022-12-23T16:07:42.283Z,48.65
2022-12-23T16:10:30.710Z,52.83
2022-12-23T16:12:59.192Z,48.50
2022-12-23T16:15:33.589Z,51.13
2022-12-23T16:18:24.386Z,44.00
2022-12-23T16:20:54.443Z,52.00
2022-12-23T16:23:22.677Z,50.25
2022-12-23T16:25:52.135Z,56.22
2022-12-23T16:28:24.347Z,50.85
2022-12-23T16:30:56.791Z,46.55
2022-12-23T16:33:36.487Z,51.03
2022-12-23T16:36:25.630Z,50.95
2022-12-23T16:38:59.140Z,46.67
2022-12-23T16:41:26.629Z,47.35
2022-12-23T16:43:54.323Z,46.72
2022-12-23T16:46:23.365Z,54.28
2022-12-23T16:48:59.465Z,48.42
2022-12-23T16:51:28.741Z,46.45
2022-12-23T16:53:57.686Z,49.28
2022-12-23T16:56:28.589Z,54.50
2022-12-23T16:58:55.969Z,51.22
2022-12-23T17:01:30.112Z,52.78
2022-12-23T17:03:57.671Z,57.25
2022-12-23T17:06:25.649Z,54.03
2022-12-23T17:08:53.475Z,52.10
2022-12-23T17:11:30.086Z,45.58
2022-12-23T17:14:03.869Z,49.75
2022-12-23T17:16:32.972Z,50.85
2022-12-23T17:19:00.425Z,48.67
2022-12-23T17:21:34.014Z,50.28
2022-12-23T17:24:22.069Z,47.75
2022-12-23T17:26:50.385Z,47.45
2022-12-23T17:29:17.809Z,52.50
2022-12-23T17:31:47.232Z,57.72
2022-12-23T17:34:25.197Z,119.10
2022-12-23T17:36:53.692Z,100.38
2022-12-23T17:39:22.541Z,81.20
2022-12-23T17:41:51.022Z,81.55
2022-12-23T17:44:19.335Z,74.80
2022-12-23T17:46:47.652Z,177.93
2022-12-23T17:49:17.566Z,84.68
2022-12-23T17:51:45.942Z,72.97
2022-12-23T17:54:23.398Z,82.40
2022-12-23T17:56:52.906Z,65.95
2022-12-23T17:59:21.995Z,75.45
2022-12-23T18:01:50.723Z,64.40
2022-12-23T18:04:19.236Z,70.00
2022-12-23T18:06:47.144Z,67.57
2022-12-23T18:09:15.524Z,64.68
2022-12-23T18:11:45.591Z,72.93
2022-12-23T18:14:17.689Z,76.05
2022-12-23T18:16:48.014Z,76.40
2022-12-23T18:19:19.547Z,75.43
2022-12-23T18:21:48.168Z,75.80
2022-12-23T18:24:16.703Z,72.95
2022-12-23T18:26:45.137Z,72.55
2022-12-23T18:29:13.556Z,76.72
2022-12-23T18:31:51.215Z,73.75
2022-12-23T18:34:20.627Z,64.65
2022-12-23T18:36:48.717Z,62.60
2022-12-23T18:39:18.087Z,64.63
2022-12-23T18:41:45.853Z,60.50
2022-12-23T18:44:20.801Z,57.72
2022-12-23T18:46:49.683Z,57.15
2022-12-23T18:49:17.937Z,56.88
2022-12-23T18:51:46.465Z,57.83
2022-12-23T18:54:16.107Z,61.95
2022-12-23T18:56:44.086Z,61.20
2022-12-23T18:59:29.687Z,58.17
2022-12-23T19:01:58.307Z,61.22
2022-12-23T19:04:27.693Z,62.03
2022-12-23T19:06:57.460Z,54.97
2022-12-23T19:09:26.250Z,59.97
2022-12-23T19:11:54.456Z,59.50
2022-12-23T19:14:22.732Z,63.25
2022-12-23T19:16:52.314Z,61.22
2022-12-23T19:19:21.672Z,62.22
2022-12-23T19:21:49.326Z,69.47
2022-12-23T19:24:17.829Z,67.20
2022-12-23T19:26:45.754Z,62.17
2022-12-23T19:29:13.998Z,65.72
2022-12-23T19:31:42.000Z,61.35
2022-12-23T19:34:15.117Z,67.38
2022-12-23T19:36:44.327Z,65.40
2022-12-23T19:39:16.948Z,70.25
2022-12-23T19:41:45.956Z,67.20
2022-12-23T19:44:14.798Z,70.38
2022-12-23T19:46:42.687Z,74.15
2022-12-23T19:49:19.276Z,83.40
2022-12-23T19:51:48.070Z,79.55
2022-12-23T19:54:17.766Z,81.35
2022-12-23T19:56:46.355Z,76.57
2022-12-23T19:59:15.064Z,71.78
2022-12-23T20:01:43.075Z,78.80
2022-12-23T20:04:12.762Z,74.88
2022-12-23T20:06:41.319Z,69.60
2022-12-23T20:09:13.144Z,71.95
2022-12-23T20:11:44.848Z,63.05
2022-12-23T20:14:16.193Z,71.30
2022-12-23T20:16:44.061Z,69.93
2022-12-23T20:19:12.693Z,69.90
2022-12-23T20:21:40.750Z,60.42
2022-12-23T20:24:10.130Z,61.95
2022-12-23T20:26:38.431Z,67.65
2022-12-23T20:29:06.758Z,59.75
2022-12-23T20:31:35.659Z,68.47
2022-12-23T20:34:07.603Z,66.60
2022-12-23T20:36:36.242Z,70.25
2022-12-23T20:39:04.295Z,73.28
2022-12-23T20:41:31.909Z,64.97
2022-12-23T20:46:46.584Z,67.05
2022-12-23T20:49:13.999Z,67.53
2022-12-23T20:51:41.140Z,66.45
2022-12-23T20:54:09.350Z,72.68
2022-12-23T20:56:36.637Z,67.68
2022-12-23T20:59:04.171Z,72.43
2022-12-23T21:01:37.905Z,68.13
2022-12-23T21:04:07.957Z,64.55
2022-12-23T21:06:35.596Z,66.47
2022-12-23T21:09:05.095Z,61.75
2022-12-23T21:11:34.259Z,69.93
2022-12-23T21:14:06.204Z,66.45
2022-12-23T21:16:35.992Z,65.57
2022-12-23T21:19:05.162Z,65.13
2022-12-23T21:21:32.404Z,70.20
2022-12-23T21:24:01.588Z,65.60
2022-12-23T21:26:29.533Z,74.75
2022-12-23T21:28:59.532Z,58.67
2022-12-23T21:31:28.431Z,68.72
2022-12-23T21:33:56.455Z,65.57
2022-12-23T21:36:29.275Z,65.80
2022-12-23T21:38:57.358Z,65.25
2022-12-23T21:41:30.275Z,66.43
2022-12-23T21:43:58.707Z,64.72
2022-12-23T21:46:27.081Z,67.68
2022-12-23T21:48:58.827Z,64.00
2022-12-23T21:51:35.037Z,62.35
2022-12-23T21:54:06.477Z,67.60
2022-12-23T21:56:34.046Z,71.03
2022-12-23T21:59:05.276Z,69.45
2022-12-23T22:01:33.303Z,68.43
2022-12-23T22:04:00.886Z,65.95
2022-12-23T22:06:39.460Z,70.53
2022-12-23T22:09:07.859Z,68.75
2022-12-23T22:11:36.466Z,69.97
2022-12-23T22:14:06.539Z,76.00
2022-12-23T22:16:34.883Z,70.97
2022-12-23T22:19:04.201Z,68.85
2022-12-23T22:21:33.170Z,80.00
2022-12-23T22:24:01.180Z,75.15
2022-12-23T22:26:31.009Z,70.80
2022-12-23T22:29:00.703Z,77.53
2022-12-23T22:31:30.879Z,84.78
2022-12-23T22:33:58.973Z,78.15
2022-12-23T22:36:26.398Z,74.63
2022-12-23T22:38:56.340Z,78.88
2022-12-23T22:41:24.499Z,102.18
2022-12-23T22:43:52.061Z,94.65
2022-12-23T22:46:19.389Z,100.15
2022-12-23T22:48:46.933Z,87.72
2022-12-23T22:51:16.304Z,85.25
2022-12-23T22:53:43.840Z,113.15
2022-12-23T22:56:13.082Z,91.80
2022-12-23T22:58:40.838Z,90.47
2022-12-23T23:01:21.175Z,86.20
2022-12-23T23:03:51.202Z,88.63
2022-12-23T23:06:18.887Z,83.68
2022-12-23T23:08:46.371Z,87.10
2022-12-23T23:11:13.380Z,90.88
2022-12-23T23:13:40.859Z,80.95
2022-12-23T23:16:08.128Z,85.85
2022-12-23T23:18:35.619Z,79.18
2022-12-23T23:21:02.789Z,89.20
2022-12-23T23:23:30.116Z,82.28
2022-12-23T23:25:57.225Z,93.82
2022-12-23T23:28:24.747Z,89.38
2022-12-23T23:31:03.779Z,84.13
2022-12-23T23:33:39.306Z,83.25
2022-12-23T23:36:07.083Z,86.70
2022-12-23T23:38:35.340Z,92.18
2022-12-23T23:41:02.874Z,87.32
2022-12-23T23:43:30.198Z,74.35
2022-12-23T23:45:57.372Z,77.45
2022-12-23T23:48:24.619Z,78.78
2022-12-23T23:50:51.853Z,82.65
2022-12-23T23:53:19.349Z,108.45
2022-12-23T23:55:46.419Z,77.95
2022-12-23T23:58:13.807Z,85.88
